Main page
METAR-TAF:

METAR-TAF

Airports :

Edwards County Airport

Rocksprings, Texas, United States

latitude: 29-56-48N, longitude: 100-10-25W, elevation: 2371 ft

Current weather observation

The report was made 30 minutes ago, at 11:35 UTC
Wind 12 mph from the South/Southeast
Temperature 72°F
Humidity 88%
Pressure 30.18 in. Hg
Visibility: 10 miles
Broken clouds at a height of 900 ft
Broken clouds at a height of 1600 ft
Broken clouds at a height of 2100 ft

METAR: KECU 221135Z AUTO 15010KT 10SM BKN009 BKN016 BKN021 22/20 A3018 RMK AO2

Time: 07:05 (12:05 UTC)


TAF: missing

Weather observations and forecasts of more than 4000 airports (METAR and TAF reports).

The available stations are represented by yellow and red dots on the map.

Hover mouse over dot to see the name of the station.

Then click to see weather observations and forecasts.

To change the map : click on the green buttons with a black cross to zoom in, on the green button with a dash to zoom out, or on the green arrows for adjacent maps.


METAR-TAF: